Time Latitude Longitude Accuracy (66% radius in meters) Altitude (meters) Speed (km/hour) Bearing (degrees) Battery (%) GPS flag
11:04:16 31.935931 34.949400 3 137.96370156624 0.035769041627645 237.77801513672 64 1 delete
11:04:05 31.935952 34.949436 3 137.99253611015 0.27978453040123 237.77801513672 64 1 delete
11:04:03 31.935957 34.949458 3 138.00138010196 0.27571156620979 196.52536010742 64 1 delete
11:03:55 31.935992 34.949485 3 138.03142027347 0.71076494455338 196.24913024902 64 1 delete
11:03:45 31.936014 34.949486 3 138.07262082934 0.030225686728954 138.3302154541 64 1 delete
11:03:35 31.936024 34.949463 4 138.07994081159 0.18264411389828 102.93475341797 64 1 delete
11:03:24 31.936036 34.949439 4 138.07746186669 0.045893352478743 169.50929260254 64 1 delete
11:03:14 31.936037 34.949422 4 138.07448927639 0.24208605289459 169.50929260254 64 1 delete
11:03:04 31.936032 34.949416 4 138.06350994214 0.058117527514696 233.87622070312 64 1 delete
11:02:54 31.936030 34.949416 4 138.06029420382 0.035487435758114 233.87622070312 64 1 delete
11:02:43 31.936034 34.949423 4 138.05819948795 0.088290072977543 233.87622070312 64 1 delete
11:02:33 31.936034 34.949426 4 138.05869938518 0.056832950562239 233.87622070312 64 1 delete
11:02:22 31.936031 34.949424 4 138.05955318662 0.055137488991022 233.87622070312 64 1 delete
11:02:12 31.936028 34.949423 4 138.06069475096 0.01586146466434 233.87622070312 64 1 delete
11:02:02 31.936031 34.949424 4 138.0612654207 0.036440134048462 233.87622070312 64 1 delete
11:01:52 31.936035 34.949427 4 138.06118229686 0.045545306056738 233.87622070312 64 1 delete
11:01:41 31.936036 34.949430 4 138.05917571023 0.016613163053989 233.87622070312 64 1 delete
11:01:31 31.936040 34.949436 4 138.05768712808 0.018091570585966 233.87622070312 64 1 delete
11:01:21 31.936049 34.949454 4 138.05979584582 0.11486431956291 243.91638183594 64 1 delete
11:01:10 31.936054 34.949463 4 138.06460506437 0.17343454062939 243.91638183594 64 1 delete
11:01:00 31.936052 34.949468 4 138.07080985633 0.050490643829107 259.80752563477 64 1 delete
11:00:50 31.936064 34.949462 4 138.08721369535 0.22624044120312 316.58880615234 64 1 delete
11:00:39 31.936025 34.949487 4 138.10190179524 0.79515069723129 288.33236694336 64 1 delete
11:00:30 31.936051 34.949471 6 138.10291700094 0.014994555152953 308.85968017578 64 1 delete
11:00:29 31.936051 34.949465 6 138.10287128861 0.13607823848724 308.85968017578 64 1 delete
11:00:19 31.936050 34.949457 3 138.09654622053 0.3807158768177 308.85968017578 64 1 delete
11:00:09 31.936066 34.949448 3 138.09424908145 0.38392472267151 166.75849914551 64 1 delete
10:59:58 31.936104 34.949426 3 138.09465272653 0.66302353143692 155.1173248291 64 1 delete
10:59:48 31.936119 34.949419 3 138.10017556009 0.0060711642727256 14.447187423706 64 1 delete
10:59:37 31.936075 34.949398 4 138.07609335102 0.39701098203659 97.24829864502 64 1 delete
10:59:27 31.936077 34.949387 4 138.05541254369 0.47229543328285 180.96952819824 64 1 delete
10:59:23 31.936109 34.949386 3 138.03710257494 2.2454257011414 150.52920532227 64 1 delete
10:59:19 31.936198 34.949303 3 138.0165140835 1.1996985673904 133.47380065918 64 1 delete
10:59:17 31.936211 34.949272 3 138.00418026128 0.24221874773502 170.05206298828 64 1 delete
10:59:07 31.936203 34.949260 3 137.98523523665 0.2973008453846 159.56315612793 64 1 delete
10:58:56 31.936212 34.949249 3 137.95048864103 0.057449635118246 140.76425170898 64 1 delete
10:58:46 31.936204 34.949204 3 137.93426117305 0.3158352971077 192.01629638672 64 1 delete
10:58:39 31.936228 34.949192 3 137.93208223778 0.65238243341446 119.94414520264 64 1 delete
10:58:36 31.936243 34.949152 4 137.93330786163 0.43551206588745 86.260475158691 64 1 delete
10:58:24 31.936237 34.949083 2 137.93762151031 0.57283961772919 63.198825836182 64 1 delete
10:58:22 31.936238 34.949068 2 137.94042880339 0.5093104839325 79.172492980957 64 1 delete
10:58:12 31.936289 34.949033 3 137.96164171438 0.62914109230042 127.45477294922 64 1 delete
10:58:09 31.936307 34.949006 3 137.96785902801 0.69205248355865 127.55815124512 64 1 delete
10:58:01 31.936336 34.948946 3 137.98488872379 0.038887996226549 105.7456741333 64 1 delete
10:57:51 31.936340 34.948900 2 138.01417863855 0.4502380490303 80.28736114502 64 1 delete
10:57:49 31.936336 34.948888 2 138.01952810624 0.040286023169756 80.28736114502 64 1 delete
10:57:41 31.936337 34.948787 2 138.05302862083 0.76995211839676 67.468704223633 64 1 delete
10:57:40 31.936328 34.948772 3 138.05794601946 0.56102311611176 45.098827362061 64 1 delete
10:57:31 31.936273 34.948697 3 138.10486807938 0.88768315315247 33.508148193359 64 1 delete
10:57:29 31.936266 34.948689 3 138.12125463795 0.85089498758316 30.147495269775 64 1 delete